Time;durP1;ratioP1;P1;durP2;ratioP2;P2;SDS_P1;SDS_P2;PMS_P1;PMS_P2;Temp;Humidity;BMP_temperature;BMP_pressure;BME280_temperature;BME280_humidity;BME280_pressure;Samples;Min_cycle;Max_cycle;Signal;HPM_P1;HPM_P2
2023/04/28 00:02:00;;;;;;;0.90;0.60;;;22.30;47.60;;;;;;5038643;28;20018;-71
2023/04/28 00:04:26;;;;;;;0.70;0.57;;;22.30;47.60;;;;;;5039938;28;20109;-71
2023/04/28 00:06:52;;;;;;;0.93;0.70;;;22.30;47.60;;;;;;5038804;28;20112;-70
2023/04/28 00:09:17;;;;;;;1.10;0.70;;;22.30;47.60;;;;;;5037080;28;20033;-71
2023/04/28 00:11:46;;;;;;;1.20;0.70;;;22.30;47.60;;;;;;5037992;28;20040;-70
2023/04/28 00:14:12;;;;;;;0.88;0.70;;;22.30;47.60;;;;;;5033680;28;20036;-70
2023/04/28 00:16:38;;;;;;;0.82;0.60;;;22.30;47.60;;;;;;5041061;28;20610;-69
2023/04/28 00:19:03;;;;;;;0.80;0.60;;;22.30;47.60;;;;;;5037604;28;20096;-71
2023/04/28 00:21:29;;;;;;;0.73;0.57;;;22.30;47.60;;;;;;5039295;28;20448;-70
2023/04/28 00:23:55;;;;;;;1.25;0.63;;;22.30;47.60;;;;;;5036344;28;20037;-70
2023/04/28 00:26:20;;;;;;;0.80;0.70;;;22.30;47.60;;;;;;5036492;28;20025;-70
2023/04/28 00:28:46;;;;;;;0.77;0.70;;;22.30;47.60;;;;;;5038651;28;20457;-70
2023/04/28 00:31:13;;;;;;;0.77;0.60;;;22.30;47.60;;;;;;5039718;28;20033;-71
2023/04/28 00:33:39;;;;;;;0.63;0.60;;;22.30;47.60;;;;;;5040075;28;20142;-70
2023/04/28 00:36:06;;;;;;;0.95;0.70;;;22.30;47.60;;;;;;5038764;28;20024;-69
2023/04/28 00:38:31;;;;;;;0.73;0.65;;;22.30;47.60;;;;;;5037957;28;20033;-69
2023/04/28 00:40:57;;;;;;;1.13;0.70;;;22.30;47.60;;;;;;5038386;28;20025;-70
2023/04/28 00:43:23;;;;;;;0.93;0.55;;;22.30;47.60;;;;;;5039279;28;20124;-71
2023/04/28 00:45:49;;;;;;;1.15;0.60;;;22.20;47.60;;;;;;5040012;28;20033;-70
2023/04/28 00:48:15;;;;;;;0.93;0.70;;;22.20;47.60;;;;;;5037073;28;20473;-70
2023/04/28 00:50:42;;;;;;;1.83;0.73;;;22.20;47.60;;;;;;5038530;28;20464;-70
2023/04/28 00:53:09;;;;;;;0.75;0.60;;;22.20;47.60;;;;;;5039964;28;20431;-70
2023/04/28 00:55:36;;;;;;;1.02;0.55;;;22.20;47.60;;;;;;5036599;28;20029;-69
2023/04/28 00:58:01;;;;;;;0.95;0.70;;;22.20;47.60;;;;;;5038386;28;20030;-69
2023/04/28 01:00:27;;;;;;;0.85;0.70;;;22.20;47.60;;;;;;5037326;28;20102;-71
2023/04/28 01:02:54;;;;;;;0.70;0.60;;;22.20;47.60;;;;;;5039025;28;20108;-70
2023/04/28 01:05:20;;;;;;;1.02;0.65;;;22.20;47.60;;;;;;5038376;28;20918;-70
2023/04/28 01:07:45;;;;;;;1.00;0.90;;;22.20;47.70;;;;;;5038098;28;20425;-70
2023/04/28 01:10:11;;;;;;;0.60;0.60;;;22.20;47.70;;;;;;5036269;28;20068;-71
2023/04/28 01:12:36;;;;;;;0.60;0.50;;;22.20;47.70;;;;;;5038115;28;20036;-70
2023/04/28 01:15:03;;;;;;;1.00;0.60;;;22.20;47.70;;;;;;5039604;28;20036;-70
2023/04/28 01:17:28;;;;;;;0.88;0.60;;;22.20;47.70;;;;;;5036868;28;20480;-70
2023/04/28 01:19:54;;;;;;;0.60;0.60;;;22.20;47.70;;;;;;5036547;28;20104;-70
2023/04/28 01:22:20;;;;;;;1.00;0.60;;;22.20;47.70;;;;;;5036021;28;20021;-69
2023/04/28 01:24:45;;;;;;;0.70;0.70;;;22.20;47.70;;;;;;5036837;28;20552;-70
2023/04/28 01:27:11;;;;;;;0.70;0.60;;;22.20;47.70;;;;;;5041451;28;20033;-70
2023/04/28 01:29:37;;;;;;;1.08;0.70;;;22.20;47.70;;;;;;5041928;28;20056;-70
2023/04/28 01:32:02;;;;;;;0.60;0.60;;;22.20;47.70;;;;;;5041760;28;20113;-70
2023/04/28 01:34:28;;;;;;;0.68;0.60;;;22.20;47.70;;;;;;5042017;28;20393;-70
2023/04/28 01:36:53;;;;;;;0.80;0.52;;;22.20;47.70;;;;;;5040883;28;20036;-70
2023/04/28 01:39:19;;;;;;;0.95;0.60;;;22.10;47.70;;;;;;5041714;28;20347;-69
2023/04/28 01:41:45;;;;;;;0.65;0.60;;;22.10;47.70;;;;;;5038346;28;20036;-70
2023/04/28 01:44:11;;;;;;;0.90;0.60;;;22.10;47.70;;;;;;5040240;28;20148;-71
2023/04/28 01:46:37;;;;;;;1.13;0.70;;;22.10;47.70;;;;;;5040512;28;20553;-70
2023/04/28 01:49:03;;;;;;;0.65;0.60;;;22.10;47.70;;;;;;5042946;28;20044;-71
2023/04/28 01:51:30;;;;;;;0.60;0.50;;;22.10;48.20;;;;;;5041144;28;20025;-70
2023/04/28 01:53:55;;;;;;;0.93;0.60;;;22.10;47.70;;;;;;5041912;28;20065;-70
2023/04/28 01:56:21;;;;;;;0.90;0.70;;;22.10;47.70;;;;;;5041319;28;20056;-70
2023/04/28 01:58:47;;;;;;;0.80;0.60;;;22.10;47.70;;;;;;5040654;28;20449;-70
2023/04/28 02:01:12;;;;;;;0.70;0.70;;;22.10;47.70;;;;;;5037943;28;20032;-70
2023/04/28 02:03:38;;;;;;;0.82;0.70;;;22.10;47.70;;;;;;5039047;28;20136;-70
2023/04/28 02:06:04;;;;;;;0.70;0.70;;;22.10;47.80;;;;;;5041898;28;20462;-70
2023/04/28 02:08:29;;;;;;;1.27;0.60;;;22.10;47.80;;;;;;5037810;28;20091;-70
2023/04/28 02:10:56;;;;;;;1.00;0.70;;;22.10;47.80;;;;;;5040119;28;20510;-70
2023/04/28 02:13:22;;;;;;;0.85;0.70;;;22.10;47.70;;;;;;5042238;28;20021;-71
2023/04/28 02:15:48;;;;;;;0.85;0.70;;;22.10;47.70;;;;;;5041267;28;20091;-70
2023/04/28 02:18:13;;;;;;;0.88;0.60;;;22.10;47.70;;;;;;5041714;28;20021;-70
2023/04/28 02:20:39;;;;;;;1.05;0.70;;;22.10;47.80;;;;;;5041919;28;20083;-70
2023/04/28 02:23:05;;;;;;;0.90;0.60;;;22.10;47.80;;;;;;5042965;28;20025;-69
2023/04/28 02:25:31;;;;;;;0.60;0.60;;;22.10;48.30;;;;;;5040205;28;20106;-69
2023/04/28 02:27:56;;;;;;;0.60;0.60;;;22.10;47.80;;;;;;5041600;28;20346;-69
2023/04/28 02:30:22;;;;;;;0.52;0.52;;;22.10;47.80;;;;;;5043246;28;20037;-70
2023/04/28 02:32:47;;;;;;;0.90;0.70;;;22.10;47.80;;;;;;5042476;28;20051;-71
2023/04/28 02:35:13;;;;;;;0.93;0.70;;;22.10;47.80;;;;;;5042166;28;20017;-70
2023/04/28 02:37:39;;;;;;;0.70;0.60;;;22.10;47.80;;;;;;5039675;28;20062;-69
2023/04/28 02:40:06;;;;;;;1.02;0.60;;;22.00;47.70;;;;;;5042548;28;20026;-70
2023/04/28 02:42:31;;;;;;;1.13;0.63;;;22.10;47.80;;;;;;5040743;28;20502;-69
2023/04/28 02:44:57;;;;;;;0.63;0.57;;;22.10;47.80;;;;;;5041098;28;20111;-68
2023/04/28 02:47:22;;;;;;;1.77;0.80;;;22.00;47.70;;;;;;5039209;28;20462;-68
2023/04/28 02:49:48;;;;;;;1.02;0.63;;;22.10;47.80;;;;;;5040100;28;20071;-68
2023/04/28 02:52:14;;;;;;;0.75;0.60;;;22.10;47.80;;;;;;5041398;28;20056;-68
2023/04/28 02:54:40;;;;;;;0.70;0.60;;;22.10;47.80;;;;;;5038871;28;20060;-68
2023/04/28 02:57:05;;;;;;;0.70;0.60;;;22.00;47.80;;;;;;5040890;28;20028;-68
2023/04/28 02:59:31;;;;;;;1.25;0.70;;;22.00;47.80;;;;;;5040959;28;20096;-67
2023/04/28 03:01:57;;;;;;;0.68;0.60;;;22.00;47.80;;;;;;5041164;28;20544;-66
2023/04/28 03:04:22;;;;;;;1.20;0.70;;;22.00;47.80;;;;;;5040022;28;20025;-68
2023/04/28 03:06:48;;;;;;;1.25;0.70;;;22.00;47.80;;;;;;5039082;28;20036;-68
2023/04/28 03:09:15;;;;;;;1.08;0.70;;;22.00;47.80;;;;;;5039770;28;20138;-67
2023/04/28 03:11:40;;;;;;;1.13;0.70;;;22.00;47.80;;;;;;5037806;28;20429;-67
2023/04/28 03:14:06;;;;;;;0.65;0.50;;;22.00;47.80;;;;;;5039078;28;20030;-67
2023/04/28 03:16:32;;;;;;;0.82;0.60;;;22.00;47.80;;;;;;5040719;28;20102;-67
2023/04/28 03:18:58;;;;;;;0.90;0.60;;;22.00;47.80;;;;;;5039840;28;20029;-67
2023/04/28 03:21:26;;;;;;;1.10;0.70;;;22.00;47.80;;;;;;5040434;28;20091;-67
2023/04/28 03:23:52;;;;;;;0.70;0.70;;;22.00;47.80;;;;;;5039568;28;20025;-68
2023/04/28 03:26:18;;;;;;;0.80;0.65;;;22.00;47.80;;;;;;5039099;28;20048;-67
2023/04/28 03:28:43;;;;;;;0.80;0.60;;;22.00;47.80;;;;;;5038631;28;20044;-67
2023/04/28 03:31:09;;;;;;;0.80;0.70;;;22.00;47.80;;;;;;5040438;28;20033;-68
2023/04/28 03:33:35;;;;;;;0.80;0.60;;;22.00;47.80;;;;;;5040804;28;20478;-68
2023/04/28 03:36:00;;;;;;;1.55;0.80;;;22.00;47.80;;;;;;5040206;28;20385;-68
2023/04/28 03:38:26;;;;;;;0.75;0.65;;;22.00;47.80;;;;;;5041695;28;20105;-67
2023/04/28 03:40:52;;;;;;;0.80;0.70;;;22.00;47.80;;;;;;5034760;28;20473;-68
2023/04/28 03:43:18;;;;;;;0.50;0.50;;;21.90;47.80;;;;;;5039858;28;20032;-68
2023/04/28 03:45:43;;;;;;;0.70;0.70;;;22.00;47.80;;;;;;5041135;28;20111;-68
2023/04/28 03:48:09;;;;;;;0.93;0.57;;;22.00;47.80;;;;;;5035595;28;20519;-68
2023/04/28 03:50:34;;;;;;;0.77;0.60;;;22.00;47.90;;;;;;5039047;28;20473;-69
2023/04/28 03:53:01;;;;;;;1.00;0.70;;;21.90;47.80;;;;;;5039609;28;20025;-68
2023/04/28 03:55:27;;;;;;;0.95;0.70;;;22.00;47.80;;;;;;5035861;28;20490;-69
2023/04/28 03:57:52;;;;;;;0.60;0.60;;;21.90;47.80;;;;;;5038186;28;20115;-68
2023/04/28 04:00:18;;;;;;;0.60;0.60;;;21.90;47.80;;;;;;5036251;28;20121;-68
2023/04/28 04:02:44;;;;;;;1.17;0.70;;;21.90;47.80;;;;;;5039599;28;20033;-68
2023/04/28 04:05:09;;;;;;;0.80;0.77;;;21.90;47.90;;;;;;5039282;28;20033;-69
2023/04/28 04:07:35;;;;;;;1.27;0.80;;;21.90;47.80;;;;;;5038757;28;20067;-68
2023/04/28 04:10:01;;;;;;;0.70;0.60;;;21.90;47.80;;;;;;5040645;28;20779;-67
2023/04/28 04:12:26;;;;;;;0.85;0.70;;;21.90;47.80;;;;;;5038847;28;20052;-67
2023/04/28 04:14:52;;;;;;;1.25;0.90;;;21.90;47.70;;;;;;5038996;28;20037;-68
2023/04/28 04:17:17;;;;;;;1.00;0.80;;;21.90;47.70;;;;;;5036191;28;20017;-68
2023/04/28 04:19:43;;;;;;;0.82;0.80;;;21.90;47.70;;;;;;5039071;28;20036;-68
2023/04/28 04:22:08;;;;;;;1.23;0.80;;;21.90;47.70;;;;;;5036771;28;20037;-68
2023/04/28 04:24:34;;;;;;;0.70;0.70;;;21.90;47.60;;;;;;5039288;28;20034;-68
2023/04/28 04:27:00;;;;;;;1.65;0.88;;;21.90;47.60;;;;;;5037620;28;20025;-69
2023/04/28 04:29:25;;;;;;;1.23;0.80;;;21.90;47.60;;;;;;5039280;28;20500;-68
2023/04/28 04:31:51;;;;;;;1.20;0.77;;;21.90;47.60;;;;;;5038048;28;20108;-67
2023/04/28 04:34:18;;;;;;;0.60;0.60;;;21.90;47.60;;;;;;5040067;28;20471;-68
2023/04/28 04:36:43;;;;;;;0.88;0.80;;;21.90;47.60;;;;;;5037702;28;20125;-67
2023/04/28 04:39:09;;;;;;;1.60;0.90;;;21.90;47.60;;;;;;5039267;28;20037;-68
2023/04/28 04:41:35;;;;;;;1.23;0.82;;;21.80;47.60;;;;;;5036931;28;20033;-68
2023/04/28 04:44:00;;;;;;;1.02;0.80;;;21.90;47.60;;;;;;5037395;28;20476;-68
2023/04/28 04:46:26;;;;;;;1.33;0.90;;;21.80;47.60;;;;;;5037230;28;20029;-65
2023/04/28 04:48:51;;;;;;;1.00;0.80;;;21.90;47.60;;;;;;5039361;28;20104;-65
2023/04/28 04:51:17;;;;;;;1.52;0.90;;;21.90;47.60;;;;;;5038511;28;20029;-65
2023/04/28 04:53:43;;;;;;;1.13;0.80;;;21.90;47.60;;;;;;5038456;28;20033;-65
2023/04/28 04:56:08;;;;;;;1.10;0.80;;;21.90;47.60;;;;;;5039167;28;20037;-65
2023/04/28 04:58:34;;;;;;;1.10;0.90;;;21.90;47.60;;;;;;5039524;28;20025;-65
2023/04/28 05:00:59;;;;;;;1.13;0.82;;;21.90;47.70;;;;;;5036559;28;20025;-66
2023/04/28 05:03:25;;;;;;;1.50;1.00;;;21.80;47.60;;;;;;5037179;28;20052;-65
2023/04/28 05:05:51;;;;;;;1.13;0.90;;;21.80;48.20;;;;;;5036697;28;20049;-66
2023/04/28 05:08:16;;;;;;;1.25;1.02;;;21.80;47.60;;;;;;5038310;28;20021;-66
2023/04/28 05:10:42;;;;;;;1.20;0.90;;;21.80;47.70;;;;;;5038866;28;20033;-66
2023/04/28 05:13:07;;;;;;;1.05;0.85;;;21.80;47.70;;;;;;5035493;28;20029;-65
2023/04/28 05:15:34;;;;;;;1.27;0.90;;;21.80;47.70;;;;;;5039933;28;20029;-65
2023/04/28 05:17:59;;;;;;;1.15;0.90;;;21.80;47.70;;;;;;5038465;28;20025;-66
2023/04/28 05:20:25;;;;;;;1.55;1.00;;;21.80;47.70;;;;;;5039707;28;20029;-66
2023/04/28 05:22:51;;;;;;;0.80;0.80;;;21.80;47.70;;;;;;5038421;28;20029;-65
2023/04/28 05:25:16;;;;;;;1.27;0.90;;;21.80;47.70;;;;;;5037229;28;20032;-66
2023/04/28 05:27:42;;;;;;;1.52;0.90;;;21.80;47.70;;;;;;5034082;28;20569;-65
2023/04/28 05:30:09;;;;;;;1.10;0.80;;;21.80;47.80;;;;;;5039520;28;20103;-65
2023/04/28 05:32:36;;;;;;;1.35;0.90;;;21.80;48.00;;;;;;5037115;28;20459;-67
2023/04/28 05:35:02;;;;;;;1.40;0.80;;;21.80;47.90;;;;;;5051698;28;20397;-67
2023/04/28 05:37:28;;;;;;;2.38;0.95;;;21.80;47.90;;;;;;5043196;28;20029;-67
2023/04/28 05:39:54;;;;;;;0.90;0.80;;;21.80;47.80;;;;;;5038143;28;20433;-67
2023/04/28 05:42:20;;;;;;;1.60;1.00;;;21.80;47.90;;;;;;5036338;28;20033;-65
2023/04/28 05:44:45;;;;;;;1.70;0.90;;;21.80;47.80;;;;;;5037501;28;20074;-65
2023/04/28 05:47:11;;;;;;;1.45;0.90;;;21.80;47.80;;;;;;5037288;28;20040;-65
2023/04/28 05:49:37;;;;;;;1.33;0.82;;;21.80;47.80;;;;;;5036367;28;20052;-65
2023/04/28 05:52:03;;;;;;;1.45;0.80;;;21.80;47.80;;;;;;5034251;28;20029;-65
2023/04/28 05:54:29;;;;;;;1.42;0.98;;;21.80;47.80;;;;;;5040706;28;20444;-64
2023/04/28 05:56:54;;;;;;;1.25;0.90;;;21.80;47.90;;;;;;5038526;28;20033;-65
2023/04/28 05:59:20;;;;;;;1.20;0.80;;;21.80;47.80;;;;;;5035477;28;20096;-64
2023/04/28 06:01:46;;;;;;;1.25;0.85;;;21.80;47.80;;;;;;5036074;28;20204;-64
2023/04/28 06:04:11;;;;;;;1.67;0.88;;;21.80;47.80;;;;;;5038991;28;20034;-65
2023/04/28 06:06:37;;;;;;;0.90;0.85;;;21.80;47.80;;;;;;5034281;28;20041;-65
2023/04/28 06:09:03;;;;;;;1.20;0.80;;;21.80;47.90;;;;;;5035201;28;20072;-65
2023/04/28 06:11:29;;;;;;;1.13;0.90;;;21.80;47.80;;;;;;5047099;28;20079;-65
2023/04/28 06:13:54;;;;;;;1.58;0.90;;;21.80;47.80;;;;;;5036878;28;20036;-65
2023/04/28 06:16:22;;;;;;;1.50;0.93;;;21.80;47.90;;;;;;5043493;28;20026;-65
2023/04/28 06:18:47;;;;;;;1.42;0.90;;;21.80;47.90;;;;;;5038682;28;20018;-64
2023/04/28 06:21:13;;;;;;;2.15;1.00;;;21.80;47.90;;;;;;5039447;28;20036;-63
2023/04/28 06:23:41;;;;;;;2.58;0.88;;;21.80;47.90;;;;;;5041726;28;20056;-64
2023/04/28 06:26:07;;;;;;;1.88;1.00;;;21.80;47.90;;;;;;5044574;28;20393;-64
2023/04/28 06:28:33;;;;;;;1.23;0.85;;;21.80;47.90;;;;;;5041600;28;20098;-64
2023/04/28 06:30:58;;;;;;;1.50;0.98;;;21.80;47.90;;;;;;5041707;28;20037;-64
2023/04/28 06:33:24;;;;;;;2.13;1.08;;;21.80;47.90;;;;;;5038869;28;20032;-64
2023/04/28 06:35:50;;;;;;;1.55;0.90;;;21.80;47.90;;;;;;5041302;28;20071;-64
2023/04/28 06:38:16;;;;;;;3.35;1.08;;;21.80;47.90;;;;;;5042877;28;20362;-63
2023/04/28 06:40:42;;;;;;;1.83;1.10;;;21.80;47.90;;;;;;5040604;28;20031;-64
2023/04/28 06:43:07;;;;;;;1.92;1.00;;;21.80;47.90;;;;;;5041422;28;20389;-63
2023/04/28 06:45:33;;;;;;;2.00;1.10;;;21.80;47.90;;;;;;5040313;28;20121;-63
2023/04/28 06:47:59;;;;;;;1.80;1.05;;;21.70;47.80;;;;;;5040233;28;20030;-64
2023/04/28 06:50:24;;;;;;;2.20;1.10;;;21.70;47.90;;;;;;5038540;28;20057;-63
2023/04/28 06:52:50;;;;;;;1.73;1.20;;;21.70;47.90;;;;;;5041010;28;20025;-63
2023/04/28 06:55:16;;;;;;;2.15;1.00;;;21.70;47.90;;;;;;5040578;28;20020;-63
2023/04/28 06:57:42;;;;;;;2.58;1.10;;;21.70;47.90;;;;;;5040948;28;20075;-63
2023/04/28 07:00:09;;;;;;;2.72;1.33;;;21.70;47.90;;;;;;5040434;28;20015;-63
2023/04/28 07:02:35;;;;;;;2.33;1.20;;;21.70;47.90;;;;;;5038907;28;20017;-63
2023/04/28 07:05:02;;;;;;;2.35;1.10;;;21.70;47.90;;;;;;5036527;28;20029;-63
2023/04/28 07:07:28;;;;;;;1.70;1.00;;;21.70;47.90;;;;;;5039242;28;20497;-64
2023/04/28 07:09:53;;;;;;;2.45;1.25;;;21.70;47.90;;;;;;5035504;28;20037;-63
2023/04/28 07:12:20;;;;;;;2.88;1.13;;;21.70;47.90;;;;;;5071335;28;20444;-63
2023/04/28 07:14:46;;;;;;;1.90;1.00;;;21.70;47.90;;;;;;5042863;28;20358;-64
2023/04/28 07:17:11;;;;;;;2.17;1.25;;;21.70;47.90;;;;;;5042951;28;20017;-64
2023/04/28 07:19:37;;;;;;;2.20;1.10;;;21.70;47.90;;;;;;5038596;28;20021;-64
2023/04/28 07:22:02;;;;;;;1.80;1.10;;;21.70;48.10;;;;;;5038343;28;20535;-63
2023/04/28 07:24:29;;;;;;;2.78;1.20;;;21.70;47.90;;;;;;5040625;28;20087;-63
2023/04/28 07:26:56;;;;;;;2.53;1.25;;;21.70;47.90;;;;;;5039833;28;20073;-63
2023/04/28 07:29:21;;;;;;;1.70;1.10;;;21.70;47.90;;;;;;5037868;28;20059;-63
2023/04/28 07:31:47;;;;;;;2.38;1.40;;;21.70;47.90;;;;;;5039629;28;20315;-64
2023/04/28 07:34:12;;;;;;;1.98;1.20;;;21.70;47.90;;;;;;5040783;28;20142;-63
2023/04/28 07:36:38;;;;;;;2.30;1.20;;;21.70;47.90;;;;;;5056346;28;20041;-64
2023/04/28 07:39:04;;;;;;;1.85;1.20;;;21.70;47.90;;;;;;5037807;28;20025;-64
2023/04/28 07:41:29;;;;;;;1.92;1.10;;;21.70;47.90;;;;;;5037939;28;20078;-64
2023/04/28 07:43:55;;;;;;;2.10;1.10;;;21.70;47.90;;;;;;5038745;28;20761;-64
2023/04/28 07:46:21;;;;;;;2.22;1.20;;;21.70;48.00;;;;;;5040206;28;20036;-64
2023/04/28 07:48:47;;;;;;;2.47;1.50;;;21.70;47.90;;;;;;5039541;28;20056;-64
2023/04/28 07:51:12;;;;;;;2.22;1.23;;;21.70;47.90;;;;;;5039127;28;20487;-64
2023/04/28 07:53:38;;;;;;;2.30;1.27;;;21.70;48.00;;;;;;5039395;28;20512;-64
2023/04/28 07:56:04;;;;;;;2.85;1.30;;;21.70;47.90;;;;;;5039063;28;20112;-64
2023/04/28 07:58:30;;;;;;;2.05;1.30;;;21.70;48.00;;;;;;5038168;28;20032;-65
2023/04/28 08:00:55;;;;;;;1.75;1.15;;;21.70;48.00;;;;;;5039906;28;20025;-64
2023/04/28 08:03:21;;;;;;;1.80;1.10;;;21.70;47.90;;;;;;5036967;28;20572;-65
2023/04/28 08:05:47;;;;;;;2.47;1.20;;;21.70;48.00;;;;;;5039000;28;20401;-64
2023/04/28 08:08:12;;;;;;;2.17;1.20;;;21.70;48.00;;;;;;5039936;28;20044;-64
2023/04/28 08:10:40;;;;;;;2.97;1.20;;;21.70;48.00;;;;;;5041050;28;20449;-65
2023/04/28 08:13:07;;;;;;;2.55;1.20;;;21.70;48.00;;;;;;5036355;28;20500;-64
2023/04/28 08:15:32;;;;;;;2.42;1.38;;;21.70;48.00;;;;;;5042882;28;20112;-64
2023/04/28 08:17:58;;;;;;;2.53;1.33;;;21.70;48.00;;;;;;5035977;28;20473;-65
2023/04/28 08:20:24;;;;;;;1.92;1.15;;;21.70;48.00;;;;;;5038685;28;20086;-64
2023/04/28 08:22:50;;;;;;;3.13;1.40;;;21.70;48.00;;;;;;5038264;28;20384;-63
2023/04/28 08:25:17;;;;;;;2.30;1.30;;;21.60;47.90;;;;;;5035997;28;20028;-64
2023/04/28 08:27:43;;;;;;;2.30;1.20;;;21.70;48.00;;;;;;5038338;28;20097;-64
2023/04/28 08:30:08;;;;;;;2.10;1.20;;;21.70;48.00;;;;;;5035542;28;20424;-64
2023/04/28 08:32:34;;;;;;;2.60;1.38;;;21.70;48.00;;;;;;5037833;28;20584;-64
2023/04/28 08:35:00;;;;;;;2.85;1.40;;;21.70;48.00;;;;;;5039400;28;20033;-64
2023/04/28 08:37:26;;;;;;;2.38;1.50;;;21.70;48.00;;;;;;5041536;28;20036;-64
2023/04/28 08:40:00;;;;;;;2.03;1.30;;;21.70;48.00;;;;;;5035185;28;20532;-64
2023/04/28 08:42:29;;;;;;;2.58;1.40;;;21.70;48.00;;;;;;5038955;28;20021;-64
2023/04/28 08:44:59;;;;;;;2.03;1.33;;;21.70;48.00;;;;;;5035602;28;20461;-63
2023/04/28 08:47:46;;;;;;;2.17;1.40;;;21.60;48.00;;;;;;5038607;28;20030;-63
2023/04/28 08:50:13;;;;;;;2.75;1.30;;;21.70;48.00;;;;;;5037625;28;20029;-63
2023/04/28 08:52:40;;;;;;;1.73;1.20;;;21.60;48.00;;;;;;5039364;28;20258;-64
2023/04/28 08:55:08;;;;;;;2.30;1.25;;;21.70;48.00;;;;;;5037351;28;20026;-64
2023/04/28 08:57:37;;;;;;;1.88;1.30;;;21.70;48.00;;;;;;5038787;28;20529;-64
2023/04/28 09:00:04;;;;;;;2.70;1.50;;;21.60;48.00;;;;;;5037639;28;20047;-64
2023/04/28 09:02:30;;;;;;;2.00;1.30;;;21.70;48.00;;;;;;5037657;28;20095;-64
2023/04/28 09:04:56;;;;;;;2.03;1.30;;;21.60;48.00;;;;;;5038398;28;20396;-64
2023/04/28 09:07:22;;;;;;;2.25;1.30;;;21.60;48.00;;;;;;5035687;28;20093;-63
2023/04/28 09:09:47;;;;;;;1.90;1.20;;;21.70;48.00;;;;;;5038232;28;20044;-65
2023/04/28 09:12:13;;;;;;;2.05;1.40;;;21.60;48.00;;;;;;5036416;28;20520;-63
2023/04/28 09:14:38;;;;;;;2.50;1.30;;;21.70;48.00;;;;;;5037448;28;20112;-63
2023/04/28 09:17:12;;;;;;;2.22;1.42;;;21.70;48.10;;;;;;5040813;28;20506;-63
2023/04/28 09:19:38;;;;;;;2.17;1.40;;;21.60;48.00;;;;;;5037869;28;20032;-63
2023/04/28 09:22:05;;;;;;;2.42;1.42;;;21.70;48.10;;;;;;5038128;28;20543;-64
2023/04/28 09:24:32;;;;;;;2.33;1.35;;;21.60;48.00;;;;;;5035853;28;20128;-63
2023/04/28 09:27:03;;;;;;;2.20;1.40;;;21.60;48.00;;;;;;5036631;28;20044;-66
2023/04/28 09:29:30;;;;;;;2.15;1.30;;;21.60;48.00;;;;;;5035636;28;20045;-64
2023/04/28 09:32:15;;;;;;;2.47;1.60;;;21.60;48.00;;;;;;5039235;28;20429;-63
2023/04/28 09:34:52;;;;;;;1.80;1.30;;;21.60;48.00;;;;;;5039703;28;20095;-62
2023/04/28 09:37:29;;;;;;;2.35;1.48;;;21.60;48.60;;;;;;5037740;28;20028;-63
2023/04/28 09:39:56;;;;;;;2.25;1.50;;;21.60;48.00;;;;;;5036248;28;20025;-63
2023/04/28 09:42:39;;;;;;;2.22;1.40;;;21.60;48.00;;;;;;5038002;28;20035;-63
2023/04/28 09:45:07;;;;;;;2.13;1.40;;;21.60;48.00;;;;;;5040161;28;20340;-63
2023/04/28 09:47:36;;;;;;;1.88;1.20;;;21.60;48.00;;;;;;5041635;28;20450;-63
2023/04/28 09:50:08;;;;;;;2.35;1.50;;;21.60;48.10;;;;;;5040672;28;20461;-63
2023/04/28 09:52:34;;;;;;;2.45;1.40;;;21.60;48.00;;;;;;5040120;28;20051;-64
2023/04/28 09:55:02;;;;;;;2.63;1.50;;;21.60;48.10;;;;;;5040269;28;20052;-64
2023/04/28 09:57:31;;;;;;;2.38;1.40;;;21.60;48.10;;;;;;5039658;28;20128;-64
2023/04/28 09:59:57;;;;;;;;;;;21.60;48.00;;;;;;5038021;28;20544;-61
2023/04/28 10:02:24;;;;;;;2.05;1.30;;;21.60;48.10;;;;;;5041100;28;20325;-64
2023/04/28 10:04:50;;;;;;;2.13;1.60;;;21.60;48.00;;;;;;5038267;28;20087;-64
2023/04/28 10:07:19;;;;;;;2.67;1.40;;;21.60;48.00;;;;;;5039534;28;20109;-64
2023/04/28 10:09:52;;;;;;;2.50;1.60;;;21.60;48.60;;;;;;5041601;28;20067;-64
2023/04/28 10:12:21;;;;;;;2.28;1.60;;;21.60;48.10;;;;;;5039543;28;20453;-65
2023/04/28 10:14:49;;;;;;;2.13;1.38;;;21.60;48.00;;;;;;5037096;28;20060;-66
2023/04/28 10:17:16;;;;;;;1.90;1.23;;;21.60;48.10;;;;;;5042329;28;20049;-65
2023/04/28 10:19:44;;;;;;;2.38;1.50;;;21.60;48.10;;;;;;5040873;28;20033;-65
2023/04/28 10:22:37;;;;;;;2.55;1.60;;;21.60;48.10;;;;;;5039610;28;20067;-65
2023/04/28 10:25:12;;;;;;;2.65;1.50;;;21.60;48.10;;;;;;5040068;28;20449;-66
2023/04/28 10:27:43;;;;;;;2.00;1.30;;;21.60;48.10;;;;;;5039745;28;20032;-66
2023/04/28 10:30:14;;;;;;;2.15;1.52;;;21.60;48.10;;;;;;5041551;28;20644;-65
2023/04/28 10:32:40;;;;;;;2.10;1.40;;;21.60;48.10;;;;;;5039985;28;20095;-65
2023/04/28 10:35:35;;;;;;;2.67;1.63;;;21.60;48.10;;;;;;5039570;28;20079;-66
2023/04/28 10:38:12;;;;;;;2.13;1.40;;;21.70;48.10;;;;;;5041087;28;20063;-66
2023/04/28 10:40:45;;;;;;;2.08;1.40;;;21.60;48.10;;;;;;5039029;28;20033;-66
2023/04/28 10:43:12;;;;;;;2.17;1.40;;;21.60;48.10;;;;;;5039474;28;20028;-67
2023/04/28 10:45:54;;;;;;;2.25;1.50;;;21.60;48.10;;;;;;5040271;28;20159;-66
2023/04/28 10:48:22;;;;;;;2.67;1.55;;;21.70;48.10;;;;;;5040779;28;20032;-66
2023/04/28 10:51:02;;;;;;;1.85;1.38;;;21.60;48.10;;;;;;5041521;28;20026;-67
2023/04/28 10:53:43;;;;;;;2.08;1.40;;;21.60;48.10;;;;;;5037166;28;20445;-66
2023/04/28 10:56:20;;;;;;;2.30;1.60;;;21.70;48.10;;;;;;5038471;28;20175;-66
2023/04/28 10:58:48;;;;;;;1.83;1.40;;;21.70;48.10;;;;;;5036481;28;20139;-66
2023/04/28 11:01:23;;;;;;;2.28;1.58;;;21.60;48.10;;;;;;5039360;28;20021;-66
2023/04/28 11:03:58;;;;;;;2.28;1.40;;;21.70;48.20;;;;;;5042083;28;20033;-66
2023/04/28 11:06:33;;;;;;;2.22;1.40;;;21.60;48.10;;;;;;5040594;28;20037;-66
2023/04/28 11:09:00;;;;;;;2.47;1.55;;;21.70;48.10;;;;;;5041034;28;20029;-66
2023/04/28 11:11:28;;;;;;;2.08;1.50;;;21.70;48.20;;;;;;5042503;28;20091;-66
2023/04/28 11:14:14;;;;;;;2.60;1.52;;;21.70;48.20;;;;;;5041534;28;20119;-66
2023/04/28 11:16:50;;;;;;;2.53;1.63;;;21.70;48.20;;;;;;5043114;28;20033;-66
2023/04/28 11:19:27;;;;;;;2.22;1.50;;;21.70;48.20;;;;;;5039389;28;20045;-66
2023/04/28 11:21:55;;;;;;;2.20;1.50;;;21.70;48.20;;;;;;5038211;28;20044;-66
2023/04/28 11:24:24;;;;;;;2.30;1.50;;;21.70;48.20;;;;;;5040717;28;20056;-66
2023/04/28 11:26:51;;;;;;;2.47;1.52;;;21.70;48.20;;;;;;5036099;28;20039;-66
2023/04/28 11:29:16;;;;;;;2.00;1.27;;;21.70;48.20;;;;;;5036050;28;20076;-65
2023/04/28 11:31:52;;;;;;;2.30;1.60;;;21.70;48.20;;;;;;5035808;28;20061;-66
2023/04/28 11:34:20;;;;;;;2.10;1.52;;;21.70;48.10;;;;;;5040667;28;20040;-66
2023/04/28 11:36:46;;;;;;;3.25;1.40;;;21.70;48.20;;;;;;5039435;28;20055;-65
2023/04/28 11:39:12;;;;;;;2.03;1.38;;;21.70;48.20;;;;;;5041768;28;20052;-66
2023/04/28 11:41:40;;;;;;;2.13;1.40;;;21.70;48.30;;;;;;5036529;28;20096;-65
2023/04/28 11:44:17;;;;;;;1.90;1.40;;;21.70;48.20;;;;;;5034769;28;20028;-68
2023/04/28 11:46:50;;;;;;;2.42;1.35;;;21.70;48.30;;;;;;5039168;28;20071;-67
2023/04/28 11:49:16;;;;;;;1.98;1.40;;;21.70;48.30;;;;;;5039150;28;20029;-67
2023/04/28 11:51:44;;;;;;;2.10;1.50;;;21.70;48.30;;;;;;5039556;28;20031;-68
2023/04/28 11:54:10;;;;;;;2.05;1.40;;;21.60;48.20;;;;;;5037860;28;20028;-68
2023/04/28 11:56:43;;;;;;;1.90;1.40;;;21.60;48.20;;;;;;5038121;28;20118;-68
2023/04/28 11:59:12;;;;;;;2.67;1.48;;;21.70;48.30;;;;;;5038209;28;20505;-68
2023/04/28 12:01:45;;;;;;;2.05;1.33;;;21.70;48.30;;;;;;5036371;28;20489;-69
2023/04/28 12:04:11;;;;;;;2.00;1.42;;;21.70;48.30;;;;;;5037627;28;20030;-69
2023/04/28 12:06:38;;;;;;;1.75;1.40;;;21.70;48.30;;;;;;5039132;28;20025;-68
2023/04/28 12:09:20;;;;;;;2.20;1.58;;;21.70;48.30;;;;;;5038243;28;20364;-68
2023/04/28 12:12:03;;;;;;;2.17;1.40;;;21.70;48.30;;;;;;5036546;28;20118;-65
2023/04/28 12:14:31;;;;;;;1.95;1.40;;;21.70;48.30;;;;;;5039665;28;20033;-65
2023/04/28 12:16:57;;;;;;;2.28;1.42;;;21.70;48.30;;;;;;5037302;28;20025;-64
2023/04/28 12:19:23;;;;;;;2.00;1.40;;;21.70;48.40;;;;;;5035956;28;20397;-64
2023/04/28 12:21:59;;;;;;;2.03;1.30;;;21.70;48.40;;;;;;5037919;28;20013;-66
2023/04/28 12:24:25;;;;;;;2.55;1.45;;;21.70;48.40;;;;;;5038134;28;20206;-64
2023/04/28 12:26:52;;;;;;;1.90;1.30;;;21.70;48.40;;;;;;5039557;28;20108;-64
2023/04/28 12:29:40;;;;;;;2.42;1.40;;;21.70;48.40;;;;;;5041301;28;20033;-66
2023/04/28 12:32:08;;;;;;;2.20;1.40;;;21.70;48.50;;;;;;5036608;28;20382;-64
2023/04/28 12:34:35;;;;;;;1.90;1.42;;;21.70;48.50;;;;;;5039008;28;20097;-64
2023/04/28 12:37:04;;;;;;;2.00;1.45;;;21.70;48.40;;;;;;5039249;28;20443;-64
2023/04/28 12:39:35;;;;;;;2.05;1.40;;;21.70;48.50;;;;;;5038703;28;20024;-64
2023/04/28 12:42:01;;;;;;;1.67;1.33;;;21.70;48.50;;;;;;5039507;28;20029;-65
2023/04/28 12:44:34;;;;;;;2.42;1.40;;;21.70;48.40;;;;;;5039264;28;20508;-65
2023/04/28 12:47:01;;;;;;;1.55;1.20;;;21.70;48.50;;;;;;5037805;28;20029;-64
2023/04/28 12:49:27;;;;;;;1.88;1.23;;;21.70;48.40;;;;;;5040579;28;20029;-65